createdAt,value
2022-08-16T00:01:33.840Z,83.88
2022-08-16T00:03:51.137Z,83.51
2022-08-16T00:06:08.184Z,85.65
2022-08-16T00:08:35.929Z,84.44
2022-08-16T00:10:54.202Z,85.55
2022-08-16T00:13:11.307Z,84.35
2022-08-16T00:15:50.815Z,83.81
2022-08-16T00:18:05.824Z,84.60
2022-08-16T00:20:27.164Z,83.37
2022-08-16T00:22:44.340Z,85.16
2022-08-16T00:25:01.765Z,85.21
2022-08-16T00:27:19.048Z,84.07
2022-08-16T00:29:36.858Z,84.31
2022-08-16T00:32:00.923Z,84.60
2022-08-16T00:34:22.196Z,84.56
2022-08-16T00:36:59.111Z,85.11
2022-08-16T00:39:20.727Z,85.49
2022-08-16T00:41:38.140Z,84.60
2022-08-16T00:43:55.529Z,84.75
2022-08-16T00:46:22.274Z,84.36
2022-08-16T00:48:50.328Z,84.21
2022-08-16T00:51:07.324Z,85.66
2022-08-16T00:53:26.154Z,85.09
2022-08-16T00:55:43.402Z,85.70
2022-08-16T00:58:00.960Z,85.47
2022-08-16T01:00:20.166Z,84.45
2022-08-16T01:02:41.631Z,84.80
2022-08-16T01:05:10.943Z,84.89
2022-08-16T01:07:29.712Z,84.93
2022-08-16T01:10:15.786Z,84.58
2022-08-16T01:12:33.179Z,84.55
2022-08-16T01:14:50.257Z,83.83
2022-08-16T01:17:10.672Z,85.12
2022-08-16T01:19:27.605Z,84.24
2022-08-16T01:21:46.280Z,84.68
2022-08-16T01:24:52.920Z,84.32
2022-08-16T01:26:44.531Z,84.94
2022-08-16T01:29:01.712Z,85.24
2022-08-16T01:31:18.782Z,85.86
2022-08-16T01:33:36.111Z,85.49
2022-08-16T01:35:53.457Z,84.33
2022-08-16T01:38:19.670Z,84.19
2022-08-16T01:40:36.912Z,84.88
2022-08-16T01:42:55.511Z,84.61
2022-08-16T01:45:14.452Z,85.12
2022-08-16T01:47:33.077Z,84.26
2022-08-16T01:50:43.274Z,85.17
2022-08-16T01:52:29.711Z,84.95
2022-08-16T01:54:47.560Z,85.52
2022-08-16T01:57:11.498Z,85.31
2022-08-16T01:59:28.792Z,85.28
2022-08-16T02:01:52.530Z,84.96
2022-08-16T02:04:48.282Z,85.44
2022-08-16T02:06:54.062Z,84.62
2022-08-16T02:09:11.693Z,84.50
2022-08-16T02:11:47.555Z,84.97
2022-08-16T02:14:06.562Z,84.99
2022-08-16T02:16:35.528Z,84.74
2022-08-16T02:18:52.622Z,84.95
2022-08-16T02:21:09.875Z,84.53
2022-08-16T02:23:29.764Z,84.53
2022-08-16T02:25:52.575Z,84.99
2022-08-16T02:28:11.281Z,84.19
2022-08-16T02:30:37.504Z,84.30
2022-08-16T02:33:03.088Z,84.16
2022-08-16T02:35:23.130Z,84.44
2022-08-16T02:37:52.447Z,84.97
2022-08-16T02:40:11.541Z,85.86
2022-08-16T02:42:29.272Z,85.12
2022-08-16T02:44:49.749Z,85.34
2022-08-16T02:47:09.243Z,85.38
2022-08-16T02:49:57.966Z,85.65
2022-08-16T02:52:03.192Z,85.40
2022-08-16T02:54:20.226Z,85.95
2022-08-16T02:56:41.000Z,85.91
2022-08-16T02:59:11.415Z,85.22
2022-08-16T03:01:36.679Z,85.18
2022-08-16T03:04:41.365Z,85.88
2022-08-16T03:06:42.263Z,86.38
2022-08-16T03:09:00.023Z,86.13
2022-08-16T03:11:21.532Z,85.60
2022-08-16T03:13:40.099Z,85.90
2022-08-16T03:15:57.488Z,85.63
2022-08-16T03:18:18.682Z,85.38
2022-08-16T03:20:55.815Z,85.28
2022-08-16T03:23:13.208Z,85.12
2022-08-16T03:25:44.175Z,85.43
2022-08-16T03:28:01.845Z,85.30
2022-08-16T03:30:25.843Z,85.38
2022-08-16T03:32:42.804Z,86.08
2022-08-16T03:35:00.914Z,86.37
2022-08-16T03:37:18.105Z,85.99
2022-08-16T03:39:42.834Z,85.83
2022-08-16T03:42:00.449Z,86.06
2022-08-16T03:44:44.973Z,85.61
2022-08-16T03:46:55.757Z,86.58
2022-08-16T03:49:15.321Z,86.84
2022-08-16T03:51:33.627Z,86.57
2022-08-16T03:53:57.820Z,86.30
2022-08-16T03:56:19.525Z,86.85
2022-08-16T03:58:37.336Z,87.05
2022-08-16T04:00:56.738Z,86.75
2022-08-16T04:03:18.640Z,86.77
2022-08-16T04:05:36.036Z,86.70
2022-08-16T04:07:54.967Z,87.17
2022-08-16T04:10:36.847Z,87.12
2022-08-16T04:13:20.457Z,86.74
2022-08-16T04:15:28.919Z,86.52
2022-08-16T04:17:46.288Z,85.48
2022-08-16T04:20:08.693Z,85.75
2022-08-16T04:22:41.170Z,85.84
2022-08-16T04:25:00.087Z,85.99
2022-08-16T04:27:18.684Z,85.69
2022-08-16T04:29:44.200Z,86.52
2022-08-16T04:32:03.514Z,85.65
2022-08-16T04:34:20.536Z,86.32
2022-08-16T04:36:41.927Z,85.63
2022-08-16T04:39:06.240Z,85.95
2022-08-16T04:41:32.822Z,85.59
2022-08-16T04:43:54.519Z,85.26
2022-08-16T04:47:00.192Z,85.77
2022-08-16T04:48:50.740Z,85.51
2022-08-16T04:51:11.922Z,85.36
2022-08-16T04:53:29.479Z,85.72
2022-08-16T04:55:46.559Z,85.82
2022-08-16T04:58:44.009Z,85.44
2022-08-16T05:00:47.644Z,86.18
2022-08-16T05:03:07.535Z,85.14
2022-08-16T05:05:25.301Z,84.97
2022-08-16T05:07:58.370Z,85.51
2022-08-16T05:10:20.082Z,86.06
2022-08-16T05:12:40.244Z,85.31
2022-08-16T05:15:03.084Z,85.79
2022-08-16T05:17:24.799Z,85.09
2022-08-16T05:19:46.555Z,86.75
2022-08-16T05:22:17.958Z,86.73
2022-08-16T05:24:35.650Z,85.96
2022-08-16T05:26:54.205Z,86.82
2022-08-16T05:29:15.382Z,86.33
2022-08-16T05:31:32.476Z,85.36
2022-08-16T05:33:54.589Z,85.68
2022-08-16T05:36:14.311Z,85.22
2022-08-16T05:38:36.497Z,85.70
2022-08-16T05:41:00.113Z,85.53
2022-08-16T05:43:17.452Z,85.41
2022-08-16T05:45:36.563Z,85.32
2022-08-16T05:47:59.427Z,85.73
2022-08-16T05:50:19.313Z,85.58
2022-08-16T05:52:36.638Z,85.22
2022-08-16T05:54:58.719Z,85.68
2022-08-16T05:57:18.676Z,85.84
2022-08-16T05:59:35.737Z,85.60
2022-08-16T06:01:53.917Z,85.52
2022-08-16T06:04:13.743Z,85.68
2022-08-16T06:06:55.835Z,85.60
2022-08-16T06:09:14.380Z,85.12
2022-08-16T06:11:33.192Z,84.68
2022-08-16T06:13:51.188Z,83.14
2022-08-16T06:16:18.359Z,83.45
2022-08-16T06:18:36.653Z,83.15
2022-08-16T06:20:55.818Z,82.79
2022-08-16T06:23:17.443Z,82.94
2022-08-16T06:25:36.179Z,83.29
2022-08-16T06:27:57.514Z,81.50
2022-08-16T06:30:19.821Z,80.78
2022-08-16T06:32:42.973Z,81.98
2022-08-16T06:35:05.657Z,82.15
2022-08-16T06:37:22.880Z,83.33
2022-08-16T06:39:46.676Z,80.82
2022-08-16T06:42:07.249Z,80.24
2022-08-16T06:44:26.976Z,81.34
2022-08-16T06:46:44.115Z,80.28
2022-08-16T06:49:07.663Z,80.38
2022-08-16T06:51:46.448Z,78.21
2022-08-16T06:54:05.039Z,80.69
2022-08-16T06:56:23.810Z,78.48
2022-08-16T06:58:40.839Z,78.05
2022-08-16T07:00:59.861Z,78.60
2022-08-16T07:03:28.224Z,79.09
2022-08-16T07:05:49.645Z,78.38
2022-08-16T07:08:07.593Z,78.01
2022-08-16T07:10:28.458Z,78.00
2022-08-16T07:13:03.342Z,77.83
2022-08-16T07:15:22.006Z,77.74
2022-08-16T07:17:42.576Z,77.52
2022-08-16T07:20:30.344Z,77.65
2022-08-16T07:22:39.723Z,76.31
2022-08-16T07:24:57.153Z,77.00
2022-08-16T07:27:15.421Z,77.47
2022-08-16T07:29:32.428Z,76.11
2022-08-16T07:31:49.492Z,77.38
2022-08-16T07:34:10.228Z,77.24
2022-08-16T07:36:27.548Z,77.08
2022-08-16T07:38:47.095Z,77.17
2022-08-16T07:41:10.043Z,76.29
2022-08-16T07:43:29.047Z,76.01
2022-08-16T07:45:52.810Z,77.12
2022-08-16T07:48:11.484Z,75.45
2022-08-16T07:50:55.942Z,73.01
2022-08-16T07:53:06.337Z,71.58
2022-08-16T07:55:25.275Z,72.78
2022-08-16T07:58:00.912Z,71.53
2022-08-16T08:00:20.281Z,69.66
2022-08-16T08:02:42.567Z,69.75
2022-08-16T08:04:59.716Z,67.83
2022-08-16T08:07:20.856Z,67.07
2022-08-16T08:09:43.360Z,67.88
2022-08-16T08:12:05.568Z,67.20
2022-08-16T08:14:29.661Z,66.19
2022-08-16T08:16:47.616Z,65.13
2022-08-16T08:19:06.432Z,64.84
2022-08-16T08:21:48.734Z,64.86
2022-08-16T08:26:44.908Z,64.13
2022-08-16T08:29:08.555Z,62.07
2022-08-16T08:31:25.971Z,61.68
2022-08-16T08:36:33.299Z,61.35
2022-08-16T08:38:50.827Z,61.48
2022-08-16T08:41:08.014Z,60.84
2022-08-16T08:43:25.780Z,58.86
2022-08-16T08:45:48.223Z,58.61
2022-08-16T08:48:06.130Z,58.42
2022-08-16T08:50:32.164Z,57.37
2022-08-16T08:52:49.975Z,58.90
2022-08-16T08:55:11.029Z,58.15
2022-08-16T08:57:28.606Z,56.20
2022-08-16T08:59:45.936Z,56.96
2022-08-16T09:02:04.463Z,55.81
2022-08-16T09:04:21.553Z,55.84
2022-08-16T09:06:43.117Z,55.34
2022-08-16T09:09:01.739Z,54.35
2022-08-16T09:11:19.347Z,54.01
2022-08-16T09:13:36.671Z,53.19
2022-08-16T09:15:53.676Z,51.82
2022-08-16T09:18:26.312Z,52.14
2022-08-16T09:20:58.429Z,52.18
2022-08-16T09:23:18.415Z,51.53
2022-08-16T09:25:35.543Z,51.47
2022-08-16T09:27:57.937Z,50.53
2022-08-16T09:30:33.625Z,49.96
2022-08-16T09:32:53.284Z,50.47
2022-08-16T09:35:10.703Z,48.98
2022-08-16T09:37:29.852Z,49.26
2022-08-16T09:39:50.279Z,49.70
2022-08-16T09:42:07.893Z,49.21
2022-08-16T09:45:11.422Z,48.30
2022-08-16T09:47:10.496Z,49.03
2022-08-16T09:49:37.070Z,47.71
2022-08-16T09:51:54.514Z,47.93
2022-08-16T09:54:16.744Z,49.57
2022-08-16T09:56:34.593Z,48.73
2022-08-16T09:59:04.849Z,46.77
2022-08-16T10:01:25.127Z,46.15
2022-08-16T10:04:02.864Z,45.79
2022-08-16T10:06:20.351Z,45.91
2022-08-16T10:09:04.673Z,44.88
2022-08-16T10:11:24.590Z,45.84
2022-08-16T10:13:41.902Z,45.54
2022-08-16T10:15:59.248Z,45.60
2022-08-16T10:19:00.222Z,45.42
2022-08-16T10:20:53.489Z,44.66
2022-08-16T10:23:17.023Z,44.42
2022-08-16T10:27:16.135Z,43.44
2022-08-16T10:28:27.571Z,44.01
2022-08-16T10:30:46.511Z,44.17
2022-08-16T10:33:14.970Z,45.44
2022-08-16T10:35:33.326Z,45.60
2022-08-16T10:37:52.874Z,45.26
2022-08-16T10:40:28.455Z,44.95
2022-08-16T10:42:47.069Z,44.08
2022-08-16T10:45:04.299Z,44.83
2022-08-16T10:47:21.788Z,44.27
2022-08-16T10:49:39.219Z,44.25
2022-08-16T10:52:02.019Z,42.82
2022-08-16T10:54:29.543Z,43.00
2022-08-16T10:56:55.539Z,43.28
2022-08-16T10:59:32.728Z,43.31
2022-08-16T11:05:05.402Z,42.72
2022-08-16T11:07:08.602Z,42.33
2022-08-16T11:09:43.225Z,41.76
2022-08-16T11:12:13.953Z,42.02
2022-08-16T11:14:32.740Z,41.73
2022-08-16T11:17:10.885Z,40.11
2022-08-16T11:19:28.345Z,40.21
2022-08-16T11:24:41.617Z,40.27
2022-08-16T11:29:38.236Z,40.53
2022-08-16T11:31:55.268Z,39.77
2022-08-16T11:34:12.551Z,40.94
2022-08-16T11:36:30.634Z,40.71
2022-08-16T11:38:55.692Z,40.37
2022-08-16T11:41:15.719Z,40.33
2022-08-16T11:43:32.782Z,40.66
2022-08-16T11:45:53.676Z,39.75
2022-08-16T11:48:12.297Z,39.63
2022-08-16T11:50:29.340Z,39.29
2022-08-16T11:52:46.956Z,39.50
2022-08-16T11:55:04.035Z,39.70
2022-08-16T11:57:25.370Z,39.64
2022-08-16T11:59:43.875Z,39.20
2022-08-16T12:02:04.312Z,38.79
2022-08-16T12:04:38.401Z,38.45
2022-08-16T12:06:55.728Z,38.54
2022-08-16T12:09:12.809Z,38.77
2022-08-16T12:11:33.177Z,37.64
2022-08-16T12:13:50.666Z,38.33
2022-08-16T12:16:09.205Z,37.78
2022-08-16T12:18:27.401Z,38.52
2022-08-16T12:20:45.751Z,38.03
2022-08-16T12:23:03.374Z,37.87
2022-08-16T12:25:23.230Z,37.09
2022-08-16T12:27:41.693Z,37.26
2022-08-16T12:29:58.934Z,38.97
2022-08-16T12:32:37.382Z,37.25
2022-08-16T12:34:53.263Z,36.83
2022-08-16T12:37:10.941Z,37.07
2022-08-16T12:39:29.334Z,35.67
2022-08-16T12:41:47.466Z,38.29
2022-08-16T12:44:05.176Z,38.95
2022-08-16T12:46:22.856Z,37.76
2022-08-16T12:48:42.370Z,37.87
2022-08-16T12:51:01.139Z,39.58
2022-08-16T12:53:19.609Z,40.63
2022-08-16T12:55:41.892Z,41.14
2022-08-16T12:58:00.931Z,40.46
2022-08-16T13:00:26.540Z,41.94
2022-08-16T13:02:46.179Z,41.67
2022-08-16T13:05:03.671Z,42.50
2022-08-16T13:07:26.949Z,42.37
2022-08-16T13:09:44.740Z,41.86
2022-08-16T13:12:03.423Z,40.89
2022-08-16T13:14:32.173Z,39.28
2022-08-16T13:16:55.477Z,39.50
2022-08-16T13:19:15.505Z,39.14
2022-08-16T13:21:33.085Z,37.50
2022-08-16T13:23:51.410Z,37.75
2022-08-16T13:26:17.485Z,37.99
2022-08-16T13:28:35.375Z,38.32
2022-08-16T13:30:52.400Z,38.03
2022-08-16T13:33:13.350Z,37.39
2022-08-16T13:35:34.755Z,38.04
2022-08-16T13:37:53.392Z,37.84
2022-08-16T13:40:19.833Z,36.96
2022-08-16T13:42:41.487Z,36.81
2022-08-16T13:45:00.656Z,36.75
2022-08-16T13:47:18.652Z,37.11
2022-08-16T13:49:36.305Z,36.93
2022-08-16T13:51:55.079Z,35.49
2022-08-16T13:54:14.157Z,35.50
2022-08-16T13:56:37.590Z,37.86
2022-08-16T13:58:59.317Z,37.69
2022-08-16T14:01:19.618Z,37.15
2022-08-16T14:03:36.901Z,37.48
2022-08-16T14:05:54.150Z,38.27
2022-08-16T14:08:11.263Z,38.75
2022-08-16T14:10:28.544Z,39.89
2022-08-16T14:12:45.835Z,39.23
2022-08-16T14:15:04.952Z,39.18
2022-08-16T14:17:22.528Z,40.14
2022-08-16T14:19:44.939Z,40.04
2022-08-16T14:22:14.881Z,40.05
2022-08-16T14:24:32.814Z,39.62
2022-08-16T14:26:50.253Z,38.74
2022-08-16T14:29:07.295Z,38.82
2022-08-16T14:31:26.120Z,38.66
2022-08-16T14:33:43.740Z,38.32
2022-08-16T14:36:01.712Z,36.97
2022-08-16T14:38:18.995Z,36.05
2022-08-16T14:40:40.765Z,36.64
2022-08-16T14:43:07.374Z,37.51
2022-08-16T14:45:24.701Z,35.24
2022-08-16T14:47:41.748Z,36.46
2022-08-16T14:49:59.372Z,36.27
2022-08-16T14:52:20.474Z,36.84
2022-08-16T14:54:53.306Z,35.90
2022-08-16T14:57:11.296Z,35.12
2022-08-16T14:59:28.404Z,34.96
2022-08-16T15:01:59.234Z,35.21
2022-08-16T15:04:33.306Z,36.50
2022-08-16T15:06:54.940Z,37.53
2022-08-16T15:09:12.454Z,37.51
2022-08-16T15:11:34.252Z,38.99
2022-08-16T15:14:02.362Z,39.03
2022-08-16T15:16:19.336Z,39.07
2022-08-16T15:18:36.357Z,39.50
2022-08-16T15:20:56.280Z,39.98
2022-08-16T15:23:14.518Z,39.92
2022-08-16T15:25:32.862Z,40.27
2022-08-16T15:27:55.030Z,41.00
2022-08-16T15:30:57.875Z,40.60
2022-08-16T15:32:49.607Z,41.06
2022-08-16T15:35:07.784Z,40.83
2022-08-16T15:37:25.831Z,41.20
2022-08-16T15:39:59.520Z,40.92
2022-08-16T15:42:28.642Z,40.68
2022-08-16T15:44:53.013Z,41.10
2022-08-16T15:47:13.753Z,40.58
2022-08-16T15:49:36.915Z,40.58
2022-08-16T15:51:55.506Z,40.36
2022-08-16T15:54:29.486Z,41.16
2022-08-16T15:56:47.871Z,40.48
2022-08-16T15:59:05.204Z,40.94
2022-08-16T16:01:23.968Z,40.44
2022-08-16T16:03:41.006Z,41.75
2022-08-16T16:05:58.136Z,42.27
2022-08-16T16:08:24.044Z,42.59
2022-08-16T16:10:41.482Z,42.46
2022-08-16T16:12:58.817Z,44.38
2022-08-16T16:15:16.375Z,43.83
2022-08-16T16:17:33.709Z,44.66
2022-08-16T16:19:53.632Z,45.25
2022-08-16T16:22:10.832Z,45.37
2022-08-16T16:24:30.836Z,45.71
2022-08-16T16:26:48.479Z,44.98
2022-08-16T16:29:10.713Z,46.58
2022-08-16T16:31:34.508Z,46.25
2022-08-16T16:33:54.479Z,46.72
2022-08-16T16:36:11.487Z,47.63
2022-08-16T16:38:31.193Z,46.77
2022-08-16T16:40:54.185Z,44.24
2022-08-16T16:43:13.784Z,45.47
2022-08-16T16:45:33.337Z,47.27
2022-08-16T16:47:54.338Z,48.02
2022-08-16T16:50:13.109Z,47.08
2022-08-16T16:52:43.389Z,48.42
2022-08-16T16:55:01.962Z,48.75
2022-08-16T16:57:19.087Z,48.94
2022-08-16T16:59:36.375Z,48.84
2022-08-16T17:01:57.564Z,49.16
2022-08-16T17:04:19.576Z,49.20
2022-08-16T17:06:39.108Z,50.45
2022-08-16T17:08:58.727Z,50.78
2022-08-16T17:11:16.112Z,51.16
2022-08-16T17:13:35.174Z,50.77
2022-08-16T17:15:52.434Z,50.97
2022-08-16T17:19:16.578Z,51.59
2022-08-16T17:20:47.549Z,51.64
2022-08-16T17:23:05.544Z,51.05
2022-08-16T17:25:22.522Z,52.26
2022-08-16T17:27:39.848Z,52.91
2022-08-16T17:29:57.053Z,52.88
2022-08-16T17:32:47.412Z,53.35
2022-08-16T17:34:52.657Z,53.30
2022-08-16T17:37:09.688Z,53.81
2022-08-16T17:39:29.525Z,53.23
2022-08-16T17:41:46.783Z,53.83
2022-08-16T17:44:04.086Z,54.94
2022-08-16T17:46:50.478Z,54.27
2022-08-16T17:48:58.681Z,53.67
2022-08-16T17:51:15.817Z,54.15
2022-08-16T17:53:32.874Z,54.68
2022-08-16T17:55:50.294Z,55.25
2022-08-16T17:58:19.817Z,55.15
2022-08-16T18:00:40.327Z,55.90
2022-08-16T18:02:58.050Z,55.74
2022-08-16T18:05:15.486Z,56.97
2022-08-16T18:07:32.857Z,56.16
2022-08-16T18:09:52.296Z,57.50
2022-08-16T18:12:09.594Z,57.38
2022-08-16T18:14:52.486Z,58.10
2022-08-16T18:17:10.860Z,57.79
2022-08-16T18:19:27.822Z,58.31
2022-08-16T18:21:44.801Z,58.08
2022-08-16T18:24:02.136Z,57.88
2022-08-16T18:26:19.119Z,59.28
2022-08-16T18:28:36.354Z,58.97
2022-08-16T18:31:00.281Z,59.24
2022-08-16T18:33:17.980Z,58.89
2022-08-16T18:35:34.950Z,59.77
2022-08-16T18:37:51.906Z,60.35
2022-08-16T18:40:09.027Z,60.06
2022-08-16T18:42:27.623Z,60.43
2022-08-16T18:44:46.014Z,60.69
2022-08-16T18:47:03.081Z,61.00
2022-08-16T18:49:20.386Z,60.83
2022-08-16T18:51:37.545Z,60.55
2022-08-16T18:53:54.583Z,61.21
2022-08-16T18:56:11.689Z,60.63
2022-08-16T18:58:29.049Z,60.94
2022-08-16T19:00:56.982Z,62.27
2022-08-16T19:03:14.244Z,61.89
2022-08-16T19:05:32.263Z,61.68
2022-08-16T19:07:50.409Z,62.74
2022-08-16T19:10:07.666Z,62.21
2022-08-16T19:12:38.724Z,61.52
2022-08-16T19:14:59.517Z,61.94
2022-08-16T19:17:16.494Z,62.03
2022-08-16T19:19:33.738Z,61.73
2022-08-16T19:21:53.480Z,63.52
2022-08-16T19:24:12.601Z,62.90
2022-08-16T19:26:35.635Z,64.09
2022-08-16T19:28:59.743Z,63.68
2022-08-16T19:31:19.515Z,64.21
2022-08-16T19:33:37.851Z,63.23
2022-08-16T19:35:55.829Z,64.18
2022-08-16T19:38:13.053Z,63.41
2022-08-16T19:40:37.755Z,64.59
2022-08-16T19:42:56.297Z,64.35
2022-08-16T19:45:13.666Z,63.68
2022-08-16T19:47:30.668Z,63.56
2022-08-16T19:49:47.580Z,65.54
2022-08-16T19:52:04.853Z,64.21
2022-08-16T19:54:21.855Z,65.74
2022-08-16T19:56:38.981Z,65.65
2022-08-16T20:01:33.092Z,65.68
2022-08-16T20:03:50.341Z,65.12
2022-08-16T20:06:07.686Z,65.93
2022-08-16T20:08:29.152Z,66.55
2022-08-16T20:10:46.493Z,66.50
2022-08-16T20:13:04.116Z,65.40
2022-08-16T20:15:26.244Z,66.64
2022-08-16T20:17:43.822Z,65.77
2022-08-16T20:20:02.180Z,66.52
2022-08-16T20:22:42.282Z,65.61
2022-08-16T20:24:56.256Z,65.83
2022-08-16T20:27:13.228Z,66.83
2022-08-16T20:29:30.370Z,66.78
2022-08-16T20:31:47.694Z,66.23
2022-08-16T20:34:04.691Z,66.90
2022-08-16T20:36:21.959Z,67.20
2022-08-16T20:38:39.045Z,67.21
2022-08-16T20:41:01.899Z,67.65
2022-08-16T20:43:19.975Z,67.60
2022-08-16T20:45:37.060Z,67.69
2022-08-16T20:47:54.092Z,67.73
2022-08-16T20:50:11.194Z,68.43
2022-08-16T20:52:28.214Z,67.79
2022-08-16T20:54:45.319Z,68.12
2022-08-16T20:57:02.428Z,68.44
2022-08-16T20:59:19.502Z,68.40
2022-08-16T21:01:46.629Z,68.68
2022-08-16T21:04:06.952Z,68.87
2022-08-16T21:06:23.882Z,69.01
2022-08-16T21:08:52.369Z,69.35
2022-08-16T21:11:11.355Z,69.35
2022-08-16T21:13:29.909Z,69.66
2022-08-16T21:15:46.959Z,69.64
2022-08-16T21:18:05.294Z,70.05
2022-08-16T21:20:22.434Z,70.09
2022-08-16T21:22:39.541Z,69.98
2022-08-16T21:24:56.622Z,69.71
2022-08-16T21:27:17.383Z,69.83
2022-08-16T21:29:42.625Z,70.41
2022-08-16T21:32:00.121Z,70.50
2022-08-16T21:34:17.465Z,70.90
2022-08-16T21:36:35.565Z,71.13
2022-08-16T21:38:53.538Z,71.26
2022-08-16T21:41:10.865Z,71.16
2022-08-16T21:43:28.181Z,71.33
2022-08-16T21:45:45.199Z,71.10
2022-08-16T21:48:02.290Z,71.58
2022-08-16T21:50:19.237Z,71.56
2022-08-16T21:52:36.543Z,71.66
2022-08-16T21:54:54.143Z,71.14
2022-08-16T21:57:13.750Z,70.54
2022-08-16T21:59:31.064Z,71.59
2022-08-16T22:01:48.150Z,71.15
2022-08-16T22:04:37.113Z,72.19
2022-08-16T22:06:43.546Z,71.85
2022-08-16T22:09:00.552Z,73.45
2022-08-16T22:11:17.816Z,72.98
2022-08-16T22:13:36.865Z,71.47
2022-08-16T22:15:57.649Z,71.60
2022-08-16T22:18:14.994Z,73.16
2022-08-16T22:20:33.028Z,72.41
2022-08-16T22:22:50.296Z,73.15
2022-08-16T22:25:07.552Z,73.01
2022-08-16T22:27:24.625Z,72.58
2022-08-16T22:29:42.218Z,72.17
2022-08-16T22:31:59.612Z,72.84
2022-08-16T22:34:17.216Z,73.50
2022-08-16T22:36:34.495Z,73.90
2022-08-16T22:38:56.489Z,73.39
2022-08-16T22:41:14.823Z,72.49
2022-08-16T22:43:34.897Z,73.02
2022-08-16T22:45:51.866Z,72.98
2022-08-16T22:48:10.006Z,73.23
2022-08-16T22:50:27.402Z,74.26
2022-08-16T22:52:44.489Z,74.14
2022-08-16T22:55:13.529Z,73.68
2022-08-16T22:57:30.908Z,73.48
2022-08-16T22:59:49.463Z,73.62
2022-08-16T23:02:09.958Z,73.80
2022-08-16T23:04:27.341Z,75.05
2022-08-16T23:06:44.342Z,72.77
2022-08-16T23:09:01.358Z,75.04
2022-08-16T23:11:18.499Z,73.77
2022-08-16T23:13:36.857Z,75.41
2022-08-16T23:15:53.928Z,74.50
2022-08-16T23:18:14.406Z,75.59
2022-08-16T23:20:31.493Z,75.04
2022-08-16T23:23:20.415Z,73.45
2022-08-16T23:25:25.746Z,75.01
2022-08-16T23:27:42.755Z,76.07
2022-08-16T23:30:01.035Z,76.19
2022-08-16T23:32:18.276Z,76.36
2022-08-16T23:34:35.649Z,75.69
2022-08-16T23:36:52.747Z,75.05
2022-08-16T23:39:09.797Z,74.35
2022-08-16T23:41:27.223Z,76.68
2022-08-16T23:43:44.367Z,76.21
2022-08-16T23:46:01.490Z,74.52
2022-08-16T23:48:19.464Z,76.11
2022-08-16T23:50:37.586Z,76.77
2022-08-16T23:52:55.800Z,76.11
2022-08-16T23:55:12.997Z,76.65
2022-08-16T23:57:30.088Z,75.92
2022-08-16T23:59:52.295Z,76.79
